createdAt,value
2019-02-24T00:00:58.172Z,17.70
2019-02-24T00:02:29.450Z,10.87
2019-02-24T00:04:01.574Z,9.78
2019-02-24T00:05:32.935Z,8.20
2019-02-24T00:07:04.227Z,13.40
2019-02-24T00:08:36.104Z,11.57
2019-02-24T00:10:07.917Z,13.33
2019-02-24T00:11:39.273Z,14.27
2019-02-24T00:13:11.170Z,13.68
2019-02-24T00:14:42.490Z,15.30
2019-02-24T00:16:14.913Z,9.33
2019-02-24T00:17:46.836Z,14.83
2019-02-24T00:19:19.191Z,8.98
2019-02-24T00:20:51.077Z,11.48
2019-02-24T00:22:22.352Z,9.13
2019-02-24T00:23:53.659Z,8.80
2019-02-24T00:25:25.497Z,7.80
2019-02-24T00:26:56.822Z,13.33
2019-02-24T00:28:28.728Z,8.55
2019-02-24T00:30:00.002Z,8.43
2019-02-24T00:31:32.355Z,9.18
2019-02-24T00:33:03.667Z,8.27
2019-02-24T00:34:35.983Z,7.05
2019-02-24T00:36:07.282Z,8.97
2019-02-24T00:37:38.575Z,7.67
2019-02-24T00:39:09.878Z,9.40
2019-02-24T00:40:42.193Z,13.60
2019-02-24T00:42:14.065Z,10.35
2019-02-24T00:43:45.960Z,10.20
2019-02-24T00:45:17.265Z,13.93
2019-02-24T00:46:49.408Z,8.65
2019-02-24T00:48:21.287Z,8.20
2019-02-24T00:49:52.983Z,8.60
2019-02-24T00:51:24.856Z,10.25
2019-02-24T00:52:56.782Z,7.80
2019-02-24T00:54:28.683Z,9.30
2019-02-24T00:56:00.760Z,8.55
2019-02-24T00:57:32.073Z,8.43
2019-02-24T00:59:03.409Z,8.67
2019-02-24T01:00:34.690Z,12.03
2019-02-24T01:02:06.987Z,9.13
2019-02-24T01:03:38.290Z,10.97
2019-02-24T01:05:10.028Z,9.47
2019-02-24T01:06:41.304Z,9.20
2019-02-24T01:08:12.628Z,14.17
2019-02-24T01:09:43.945Z,14.93
2019-02-24T01:11:15.559Z,12.30
2019-02-24T01:12:46.860Z,11.13
2019-02-24T01:14:18.174Z,7.43
2019-02-24T01:15:49.455Z,9.80
2019-02-24T01:17:21.137Z,13.37
2019-02-24T01:18:52.437Z,12.67
2019-02-24T01:20:23.723Z,10.83
2019-02-24T01:21:55.021Z,13.77
2019-02-24T01:23:29.409Z,22.77
2019-02-24T01:25:00.685Z,18.10
2019-02-24T01:26:32.003Z,14.87
2019-02-24T01:28:03.343Z,9.37
2019-02-24T01:29:34.931Z,16.07
2019-02-24T01:31:06.229Z,9.57
2019-02-24T01:32:37.545Z,10.23
2019-02-24T01:34:08.858Z,12.13
2019-02-24T01:35:40.400Z,9.67
2019-02-24T01:37:11.670Z,7.90
2019-02-24T01:38:43.004Z,13.37
2019-02-24T01:40:14.881Z,11.20
2019-02-24T01:41:46.487Z,12.80
2019-02-24T01:43:18.361Z,13.70
2019-02-24T01:44:50.271Z,15.85
2019-02-24T01:46:21.554Z,10.67
2019-02-24T01:47:52.971Z,8.13
2019-02-24T01:49:24.288Z,11.67
2019-02-24T01:50:56.207Z,8.28
2019-02-24T01:52:27.565Z,11.47
2019-02-24T01:53:59.760Z,17.27
2019-02-24T01:55:31.061Z,15.20
2019-02-24T01:57:02.371Z,16.27
2019-02-24T01:58:35.372Z,14.07
2019-02-24T02:00:07.605Z,18.35
2019-02-24T02:01:38.895Z,17.73
2019-02-24T02:03:10.202Z,23.60
2019-02-24T02:04:41.519Z,20.20
2019-02-24T02:06:13.152Z,21.13
2019-02-24T02:07:45.050Z,13.75
2019-02-24T02:09:18.659Z,10.55
2019-02-24T02:10:49.982Z,13.90
2019-02-24T02:12:22.358Z,14.75
2019-02-24T02:13:53.685Z,15.37
2019-02-24T02:15:24.981Z,9.47
2019-02-24T02:16:56.342Z,10.13
2019-02-24T02:18:27.910Z,10.17
2019-02-24T02:19:59.196Z,10.93
2019-02-24T02:21:31.532Z,6.65
2019-02-24T02:23:02.851Z,11.93
2019-02-24T02:24:34.187Z,12.20
2019-02-24T02:26:05.516Z,13.67
2019-02-24T02:27:37.077Z,13.93
2019-02-24T02:29:08.358Z,13.50
2019-02-24T02:30:39.715Z,18.50
2019-02-24T02:32:11.033Z,11.57
2019-02-24T02:33:42.604Z,15.67
2019-02-24T02:35:13.940Z,13.87
2019-02-24T02:36:46.257Z,13.93
2019-02-24T02:38:18.139Z,12.60
2019-02-24T02:39:49.486Z,20.80
2019-02-24T02:41:21.392Z,19.73
2019-02-24T02:42:53.727Z,14.53
2019-02-24T02:44:25.591Z,13.55
2019-02-24T02:45:57.536Z,24.10
2019-02-24T02:47:28.826Z,12.50
2019-02-24T02:49:00.673Z,14.83
2019-02-24T02:50:31.982Z,14.17
2019-02-24T02:52:03.683Z,11.30
2019-02-24T02:53:35.602Z,14.00
2019-02-24T02:55:07.485Z,11.30
2019-02-24T02:56:38.801Z,14.97
2019-02-24T02:58:10.594Z,12.80
2019-02-24T02:59:41.957Z,13.38
2019-02-24T03:01:13.887Z,10.90
2019-02-24T03:02:45.739Z,16.70
2019-02-24T03:04:17.354Z,12.13
2019-02-24T03:05:49.298Z,14.73
2019-02-24T03:07:21.512Z,13.75
2019-02-24T03:08:52.798Z,29.40
2019-02-24T03:10:24.090Z,14.73
2019-02-24T03:11:56.033Z,15.80
2019-02-24T03:13:27.578Z,14.97
2019-02-24T03:14:59.439Z,10.70
2019-02-24T03:16:30.756Z,13.10
2019-02-24T03:18:02.130Z,12.13
2019-02-24T03:19:33.685Z,15.60
2019-02-24T03:21:05.582Z,25.95
2019-02-24T03:22:37.334Z,15.10
2019-02-24T03:24:09.187Z,17.60
2019-02-24T03:25:41.074Z,16.15
2019-02-24T03:27:13.006Z,19.07
2019-02-24T03:28:45.236Z,22.52
2019-02-24T03:30:17.153Z,22.95
2019-02-24T03:31:48.453Z,13.80
2019-02-24T03:33:19.785Z,12.23
2019-02-24T03:34:51.393Z,10.73
2019-02-24T03:36:23.249Z,10.53
2019-02-24T03:37:55.646Z,9.80
2019-02-24T03:39:26.999Z,9.10
2019-02-24T03:40:58.884Z,9.63
2019-02-24T03:42:30.756Z,9.05
2019-02-24T03:44:03.094Z,13.93
2019-02-24T03:45:34.998Z,10.68
2019-02-24T03:47:06.890Z,11.48
2019-02-24T03:48:38.782Z,9.13
2019-02-24T03:50:10.585Z,9.43
2019-02-24T03:51:42.450Z,10.82
2019-02-24T03:53:13.801Z,10.57
2019-02-24T03:54:45.688Z,14.98
2019-02-24T03:56:17.428Z,10.73
2019-02-24T03:57:48.738Z,24.93
2019-02-24T03:59:20.071Z,24.27
2019-02-24T04:00:51.420Z,30.73
2019-02-24T04:02:23.821Z,23.18
2019-02-24T04:03:55.093Z,20.17
2019-02-24T04:05:27.058Z,14.87
2019-02-24T04:06:58.903Z,15.85
2019-02-24T04:08:30.451Z,21.57
2019-02-24T04:10:01.788Z,21.27
2019-02-24T04:11:33.697Z,16.95
2019-02-24T04:13:05.575Z,15.20
2019-02-24T04:14:37.295Z,11.80
2019-02-24T04:16:08.595Z,14.20
2019-02-24T04:17:39.910Z,10.70
2019-02-24T04:19:11.807Z,13.98
2019-02-24T04:20:43.291Z,29.00
2019-02-24T04:22:14.598Z,23.47
2019-02-24T04:23:46.822Z,53.33
2019-02-24T04:25:18.733Z,15.88
2019-02-24T04:26:50.087Z,16.17
2019-02-24T04:28:24.123Z,15.97
2019-02-24T04:29:56.372Z,16.35
2019-02-24T04:31:27.658Z,15.90
2019-02-24T04:32:59.026Z,21.67
2019-02-24T04:34:30.357Z,20.53
2019-02-24T04:36:01.956Z,15.47
2019-02-24T04:37:33.254Z,18.57
2019-02-24T04:39:05.039Z,27.80
2019-02-24T04:40:36.306Z,19.63
2019-02-24T04:42:07.594Z,16.00
2019-02-24T04:43:38.997Z,22.43
2019-02-24T04:45:11.159Z,24.30
2019-02-24T04:46:43.068Z,22.70
2019-02-24T04:48:14.372Z,21.53
2019-02-24T04:49:46.257Z,20.05
2019-02-24T04:51:18.515Z,18.42
2019-02-24T04:52:50.378Z,18.45
2019-02-24T04:54:22.555Z,14.33
2019-02-24T04:55:53.886Z,14.53
2019-02-24T04:57:25.240Z,28.33
2019-02-24T04:58:56.542Z,24.33
2019-02-24T05:00:28.204Z,23.13
2019-02-24T05:01:59.490Z,23.23
2019-02-24T05:03:31.423Z,24.43
2019-02-24T05:05:02.739Z,25.60
2019-02-24T05:06:34.320Z,18.37
2019-02-24T05:08:05.611Z,17.20
2019-02-24T05:09:37.283Z,25.53
2019-02-24T05:11:08.615Z,23.70
2019-02-24T05:12:39.923Z,32.93
2019-02-24T05:14:11.801Z,26.55
2019-02-24T05:15:43.333Z,29.43
2019-02-24T05:17:14.647Z,34.57
2019-02-24T05:18:45.923Z,20.33
2019-02-24T05:20:17.839Z,21.73
2019-02-24T05:21:49.561Z,19.70
2019-02-24T05:23:20.836Z,34.37
2019-02-24T05:24:52.139Z,39.40
2019-02-24T05:26:24.078Z,38.95
2019-02-24T05:27:55.683Z,32.47
2019-02-24T05:29:27.580Z,41.42
2019-02-24T05:30:58.958Z,23.73
2019-02-24T05:32:30.252Z,19.57
2019-02-24T05:34:01.821Z,23.67
2019-02-24T05:35:33.135Z,21.07
2019-02-24T05:37:04.467Z,30.70
2019-02-24T05:38:35.755Z,36.80
2019-02-24T05:40:07.278Z,36.63
2019-02-24T05:41:38.569Z,36.43
2019-02-24T05:43:09.878Z,33.97
2019-02-24T05:44:41.204Z,40.13
2019-02-24T05:46:12.631Z,28.63
2019-02-24T05:47:43.989Z,21.47
2019-02-24T05:49:15.285Z,13.60
2019-02-24T05:50:46.619Z,15.93
2019-02-24T05:52:18.139Z,16.47
2019-02-24T05:53:49.497Z,22.53
2019-02-24T05:55:20.998Z,13.07
2019-02-24T05:56:52.340Z,30.17
2019-02-24T05:58:23.642Z,27.40
2019-02-24T05:59:55.568Z,59.63
2019-02-24T06:01:27.244Z,49.10
2019-02-24T06:02:58.593Z,51.43
2019-02-24T06:04:29.943Z,42.00
2019-02-24T06:06:01.249Z,35.30
2019-02-24T06:07:33.434Z,15.85
2019-02-24T06:09:04.755Z,16.77
2019-02-24T06:10:36.538Z,28.73
2019-02-24T06:12:08.470Z,21.27
2019-02-24T06:13:40.345Z,31.17
2019-02-24T06:15:11.639Z,25.90
2019-02-24T06:16:44.883Z,17.73
2019-02-24T06:18:16.237Z,24.63
2019-02-24T06:19:47.549Z,25.43
2019-02-24T06:21:18.856Z,23.23
2019-02-24T06:22:51.265Z,22.93
2019-02-24T06:24:22.563Z,22.23
2019-02-24T06:25:54.294Z,15.27
2019-02-24T06:27:25.589Z,26.33
2019-02-24T06:28:56.917Z,44.60
2019-02-24T06:30:28.215Z,27.87
2019-02-24T06:31:59.719Z,19.30
2019-02-24T06:33:31.013Z,18.97
2019-02-24T06:35:02.341Z,22.80
2019-02-24T06:36:33.631Z,19.43
2019-02-24T06:38:05.301Z,16.97
2019-02-24T06:39:36.593Z,15.00
2019-02-24T06:41:08.308Z,20.30
2019-02-24T06:42:39.629Z,16.40
2019-02-24T06:44:10.921Z,20.77
2019-02-24T06:45:42.808Z,19.85
2019-02-24T06:47:15.090Z,16.73
2019-02-24T06:48:46.373Z,18.07
2019-02-24T06:50:18.257Z,22.52
2019-02-24T06:51:49.549Z,17.93
2019-02-24T06:53:21.748Z,17.87
2019-02-24T06:54:53.626Z,16.48
2019-02-24T06:56:24.940Z,20.70
2019-02-24T06:57:56.260Z,29.40
2019-02-24T06:59:28.068Z,31.20
2019-02-24T07:00:59.962Z,27.70
2019-02-24T07:02:33.185Z,21.10
2019-02-24T07:04:05.039Z,34.55
2019-02-24T07:05:36.615Z,19.50
2019-02-24T07:07:08.504Z,20.82
2019-02-24T07:08:40.438Z,15.72
2019-02-24T07:10:11.741Z,17.27
2019-02-24T07:11:43.363Z,48.73
2019-02-24T07:13:15.324Z,34.88
2019-02-24T07:14:46.598Z,20.37
2019-02-24T07:16:18.471Z,30.62
2019-02-24T07:17:50.025Z,21.10
2019-02-24T07:19:21.936Z,13.50
2019-02-24T07:20:53.227Z,12.63
2019-02-24T07:22:25.138Z,17.15
2019-02-24T07:23:56.836Z,23.63
2019-02-24T07:25:28.177Z,25.00
2019-02-24T07:27:00.350Z,28.92
2019-02-24T07:28:31.641Z,20.60
2019-02-24T07:30:03.507Z,16.30
2019-02-24T07:31:35.458Z,22.70
2019-02-24T07:33:07.805Z,27.75
2019-02-24T07:34:39.126Z,21.87
2019-02-24T07:36:11.059Z,20.82
2019-02-24T07:37:42.972Z,25.08
2019-02-24T07:39:14.440Z,24.80
2019-02-24T07:40:46.337Z,24.77
2019-02-24T07:42:18.457Z,22.07
2019-02-24T07:43:49.766Z,24.07
2019-02-24T07:45:21.671Z,23.30
2019-02-24T07:46:52.958Z,20.50
2019-02-24T07:48:24.396Z,19.13
2019-02-24T07:49:55.818Z,20.07
2019-02-24T07:51:27.749Z,20.17
2019-02-24T07:52:59.613Z,25.37
2019-02-24T07:54:31.364Z,23.50
2019-02-24T07:56:02.684Z,18.40
2019-02-24T07:57:34.536Z,19.75
2019-02-24T07:59:05.832Z,22.47
2019-02-24T08:00:38.433Z,29.55
2019-02-24T08:02:09.711Z,21.70
2019-02-24T08:03:41.613Z,22.82
2019-02-24T08:05:13.509Z,18.80
2019-02-24T08:06:45.825Z,16.20
2019-02-24T08:08:17.721Z,30.55
2019-02-24T08:09:49.586Z,21.52
2019-02-24T08:11:21.479Z,20.90
2019-02-24T08:12:53.635Z,16.55
2019-02-24T08:14:25.522Z,26.85
2019-02-24T08:15:57.422Z,20.80
2019-02-24T08:17:29.322Z,20.27
2019-02-24T08:19:01.461Z,24.10
2019-02-24T08:20:33.505Z,59.40
2019-02-24T08:22:05.406Z,19.65
2019-02-24T08:23:37.283Z,21.20
2019-02-24T08:25:09.337Z,30.17
2019-02-24T08:26:41.307Z,23.67
2019-02-24T08:28:13.203Z,24.12
2019-02-24T08:29:45.079Z,17.50
2019-02-24T08:31:17.258Z,27.42
2019-02-24T08:32:49.194Z,21.15
2019-02-24T08:34:21.071Z,18.55
2019-02-24T08:35:52.973Z,12.05
2019-02-24T08:37:25.035Z,16.85
2019-02-24T08:38:56.963Z,12.40
2019-02-24T08:40:28.839Z,16.60
2019-02-24T08:42:00.767Z,37.05
2019-02-24T08:43:32.899Z,37.38
2019-02-24T08:45:04.825Z,14.78
2019-02-24T08:46:36.757Z,31.90
2019-02-24T08:48:08.698Z,22.48
2019-02-24T08:49:40.743Z,16.97
2019-02-24T08:51:12.660Z,20.80
2019-02-24T08:52:44.565Z,24.72
2019-02-24T08:54:16.465Z,24.87
2019-02-24T08:55:48.477Z,15.45
2019-02-24T08:57:20.413Z,16.65
2019-02-24T08:58:52.566Z,8.55
2019-02-24T09:00:24.426Z,11.12
2019-02-24T09:01:56.367Z,35.25
2019-02-24T09:03:27.659Z,15.47
2019-02-24T09:04:59.901Z,31.93
2019-02-24T09:06:31.278Z,15.27
2019-02-24T09:08:03.197Z,20.08
2019-02-24T09:09:35.130Z,21.87
2019-02-24T09:11:07.330Z,16.20
2019-02-24T09:12:39.223Z,15.48
2019-02-24T09:14:10.997Z,26.17
2019-02-24T09:15:42.957Z,22.55
2019-02-24T09:17:14.832Z,24.75
2019-02-24T09:18:46.727Z,21.70
2019-02-24T09:20:19.076Z,27.48
2019-02-24T09:21:50.996Z,17.87
2019-02-24T09:23:22.900Z,22.75
2019-02-24T09:24:54.236Z,18.43
2019-02-24T09:26:26.339Z,17.75
2019-02-24T09:27:58.223Z,15.53
2019-02-24T09:29:30.590Z,10.63
2019-02-24T09:31:02.497Z,189.15
2019-02-24T09:32:34.440Z,58.38
2019-02-24T09:34:06.378Z,32.00
2019-02-24T09:35:38.538Z,14.63
2019-02-24T09:37:10.420Z,16.52
2019-02-24T09:38:42.379Z,16.45
2019-02-24T09:40:14.247Z,27.07
2019-02-24T09:41:46.403Z,20.43
2019-02-24T09:43:18.350Z,19.27
2019-02-24T09:44:51.993Z,24.98
2019-02-24T09:46:23.884Z,13.35
2019-02-24T09:47:55.750Z,22.70
2019-02-24T09:49:27.690Z,33.28
2019-02-24T09:51:00.092Z,26.00
2019-02-24T09:52:31.968Z,30.57
2019-02-24T09:54:03.850Z,16.62
2019-02-24T09:55:35.778Z,16.10
2019-02-24T09:57:07.810Z,16.55
2019-02-24T09:58:39.687Z,25.12
2019-02-24T10:00:11.903Z,30.75
2019-02-24T10:01:43.259Z,12.73
2019-02-24T10:03:15.178Z,10.98
2019-02-24T10:04:47.072Z,7.97
2019-02-24T10:06:19.396Z,9.45
2019-02-24T10:07:51.320Z,9.35
2019-02-24T10:09:23.220Z,14.43
2019-02-24T10:10:55.127Z,20.75
2019-02-24T10:12:27.304Z,23.15
2019-02-24T10:14:01.126Z,21.42
2019-02-24T10:15:33.045Z,17.25
2019-02-24T10:17:04.923Z,23.22
2019-02-24T10:18:37.265Z,19.07
2019-02-24T10:20:09.173Z,20.08
2019-02-24T10:21:41.114Z,22.07
2019-02-24T10:23:13.014Z,26.82
2019-02-24T10:24:45.163Z,36.83
2019-02-24T10:26:17.090Z,34.63
2019-02-24T10:27:48.999Z,45.00
2019-02-24T10:29:20.882Z,34.92
2019-02-24T10:30:52.406Z,47.30
2019-02-24T10:32:23.739Z,21.33
2019-02-24T10:33:55.634Z,21.57
2019-02-24T10:35:27.285Z,17.23
2019-02-24T10:36:59.624Z,16.30
2019-02-24T10:38:31.539Z,12.98
2019-02-24T10:40:03.448Z,21.17
2019-02-24T10:41:35.307Z,10.98
2019-02-24T10:43:10.248Z,16.65
2019-02-24T10:44:41.601Z,31.60
2019-02-24T10:46:13.950Z,18.98
2019-02-24T10:47:45.227Z,28.93
2019-02-24T10:49:16.533Z,11.70
2019-02-24T10:50:47.831Z,11.57
2019-02-24T10:52:19.962Z,31.25
2019-02-24T10:53:51.863Z,27.98
2019-02-24T10:55:23.731Z,14.95
2019-02-24T10:56:55.664Z,58.23
2019-02-24T10:58:34.490Z,63.50
2019-02-24T11:00:00.757Z,24.63
2019-02-24T11:01:33.051Z,15.48
2019-02-24T11:03:04.987Z,13.88
2019-02-24T11:04:36.872Z,24.15
2019-02-24T11:06:08.741Z,9.45
2019-02-24T11:07:40.763Z,13.35
2019-02-24T11:09:12.667Z,12.40
2019-02-24T11:10:47.307Z,17.85
2019-02-24T11:12:19.197Z,9.78
2019-02-24T11:13:51.305Z,16.17
2019-02-24T11:15:23.224Z,35.13
2019-02-24T11:16:55.407Z,26.70
2019-02-24T11:18:26.736Z,28.90
2019-02-24T11:19:58.650Z,36.93
2019-02-24T11:21:30.535Z,45.70
2019-02-24T11:23:02.934Z,30.68
2019-02-24T11:24:34.846Z,22.70
2019-02-24T11:26:06.686Z,27.73
2019-02-24T11:27:38.621Z,25.48
2019-02-24T11:29:10.865Z,17.75
2019-02-24T11:30:42.755Z,17.67
2019-02-24T11:32:14.634Z,11.10
2019-02-24T11:33:46.531Z,19.90
2019-02-24T11:35:18.718Z,22.75
2019-02-24T11:36:50.648Z,21.33
2019-02-24T11:38:22.538Z,24.52
2019-02-24T11:39:54.443Z,11.53
2019-02-24T11:41:25.949Z,11.77
2019-02-24T11:42:58.683Z,46.10
2019-02-24T11:44:30.888Z,17.98
2019-02-24T11:46:02.800Z,21.80
2019-02-24T11:47:34.841Z,31.45
2019-02-24T11:49:06.744Z,22.15
2019-02-24T11:50:38.644Z,23.57
2019-02-24T11:52:10.527Z,35.73
2019-02-24T11:53:42.688Z,21.90
2019-02-24T11:55:14.611Z,31.33
2019-02-24T11:56:46.490Z,11.95
2019-02-24T11:58:18.389Z,15.75
2019-02-24T11:59:51.513Z,18.12
2019-02-24T12:01:23.400Z,19.95
2019-02-24T12:02:55.281Z,18.05
2019-02-24T12:04:27.140Z,14.53
2019-02-24T12:05:59.172Z,13.08
2019-02-24T12:07:31.093Z,14.38
2019-02-24T12:09:05.400Z,11.80
2019-02-24T12:10:37.462Z,17.32
2019-02-24T12:12:09.760Z,12.33
2019-02-24T12:13:41.634Z,8.63
2019-02-24T12:15:13.523Z,15.48
2019-02-24T12:16:45.484Z,12.55
2019-02-24T12:18:17.535Z,15.48
2019-02-24T12:19:49.425Z,20.37
2019-02-24T12:21:21.401Z,39.78
2019-02-24T12:22:53.312Z,17.90
2019-02-24T12:24:25.688Z,27.85
2019-02-24T12:25:57.593Z,25.23
2019-02-24T12:27:29.486Z,21.80
2019-02-24T12:29:00.832Z,24.23
2019-02-24T12:30:32.937Z,15.13
2019-02-24T12:32:06.149Z,26.42
2019-02-24T12:33:38.626Z,24.87
2019-02-24T12:35:10.539Z,23.12
2019-02-24T12:36:42.442Z,16.82
2019-02-24T12:38:14.369Z,17.17
2019-02-24T12:39:46.488Z,31.85
2019-02-24T12:41:18.381Z,47.58
2019-02-24T12:42:50.282Z,24.25
2019-02-24T12:44:22.222Z,46.45
2019-02-24T12:45:54.447Z,54.95
2019-02-24T12:47:26.341Z,23.77
2019-02-24T12:48:58.594Z,19.10
2019-02-24T12:50:30.521Z,34.15
2019-02-24T12:52:02.396Z,34.40
2019-02-24T12:53:34.287Z,35.05
2019-02-24T12:55:06.696Z,33.67
2019-02-24T12:56:38.016Z,21.40
2019-02-24T12:58:09.954Z,19.27
2019-02-24T12:59:41.874Z,19.20
2019-02-24T13:01:13.984Z,17.60
2019-02-24T13:02:45.917Z,21.15
2019-02-24T13:04:18.014Z,18.55
2019-02-24T13:05:49.883Z,13.80
2019-02-24T13:07:21.205Z,16.10
2019-02-24T13:08:53.209Z,19.32
2019-02-24T13:10:24.903Z,22.07
2019-02-24T13:11:56.785Z,46.13
2019-02-24T13:13:28.092Z,31.23
2019-02-24T13:14:59.447Z,17.07
2019-02-24T13:16:31.219Z,26.10
2019-02-24T13:18:02.535Z,42.65
2019-02-24T13:19:33.994Z,20.37
2019-02-24T13:21:05.412Z,44.57
2019-02-24T13:22:36.729Z,17.33
2019-02-24T13:24:08.641Z,19.98
2019-02-24T13:25:40.144Z,16.37
2019-02-24T13:27:13.182Z,18.80
2019-02-24T13:28:50.505Z,19.70
2019-02-24T13:30:17.443Z,20.77
2019-02-24T13:31:48.923Z,24.32
2019-02-24T13:33:20.865Z,10.80
2019-02-24T13:34:52.336Z,18.83
2019-02-24T13:36:23.636Z,10.17
2019-02-24T13:37:54.984Z,9.30
2019-02-24T13:39:26.315Z,26.70
2019-02-24T13:40:58.534Z,16.25
2019-02-24T13:42:30.433Z,13.70
2019-02-24T13:44:02.377Z,14.68
2019-02-24T13:45:34.267Z,22.77
2019-02-24T13:47:06.414Z,19.48
2019-02-24T13:48:38.333Z,18.65
2019-02-24T13:50:10.419Z,23.52
2019-02-24T13:51:42.327Z,19.07
2019-02-24T13:53:14.214Z,30.05
2019-02-24T13:54:45.512Z,22.47
2019-02-24T13:56:17.738Z,26.73
2019-02-24T13:57:49.699Z,32.20
2019-02-24T13:59:23.729Z,40.83
2019-02-24T14:00:55.546Z,20.30
2019-02-24T14:02:27.617Z,30.80
2019-02-24T14:03:59.536Z,81.40
2019-02-24T14:05:31.875Z,69.05
2019-02-24T14:07:03.226Z,32.47
2019-02-24T14:08:34.605Z,35.67
2019-02-24T14:10:06.498Z,33.88
2019-02-24T14:11:37.998Z,35.33
2019-02-24T14:13:09.948Z,19.75
2019-02-24T14:14:48.879Z,23.27
2019-02-24T14:16:15.419Z,23.05
2019-02-24T14:17:47.792Z,25.85
2019-02-24T14:19:19.683Z,60.10
2019-02-24T14:20:51.215Z,38.60
2019-02-24T14:22:22.546Z,37.67
2019-02-24T14:23:54.423Z,17.92
2019-02-24T14:25:26.353Z,26.27
2019-02-24T14:26:58.594Z,37.30
2019-02-24T14:28:30.461Z,14.73
2019-02-24T14:30:02.367Z,34.92
2019-02-24T14:31:33.749Z,13.50
2019-02-24T14:33:05.968Z,24.20
2019-02-24T14:34:38.859Z,32.80
2019-02-24T14:36:10.664Z,29.17
2019-02-24T14:37:42.639Z,19.17
2019-02-24T14:39:14.534Z,25.00
2019-02-24T14:40:45.881Z,13.53
2019-02-24T14:42:17.949Z,31.07
2019-02-24T14:43:49.892Z,29.95
2019-02-24T14:45:21.217Z,14.27
2019-02-24T14:46:53.135Z,21.95
2019-02-24T14:48:25.347Z,20.77
2019-02-24T14:49:57.357Z,18.55
2019-02-24T14:51:29.432Z,12.90
2019-02-24T14:53:00.715Z,12.00
2019-02-24T14:54:32.011Z,13.10
2019-02-24T14:56:03.365Z,22.30
2019-02-24T14:57:35.586Z,23.85
2019-02-24T14:59:07.511Z,21.73
2019-02-24T15:00:39.484Z,17.98
2019-02-24T15:02:11.391Z,18.25
2019-02-24T15:03:43.620Z,17.05
2019-02-24T15:05:16.707Z,29.35
2019-02-24T15:06:49.319Z,23.50
2019-02-24T15:08:21.207Z,24.87
2019-02-24T15:09:53.165Z,17.27
2019-02-24T15:11:25.088Z,21.10
2019-02-24T15:12:57.163Z,9.80
2019-02-24T15:14:29.066Z,8.18
2019-02-24T15:16:00.952Z,9.20
2019-02-24T15:17:32.897Z,10.18
2019-02-24T15:19:04.874Z,14.80
2019-02-24T15:20:36.180Z,16.03
2019-02-24T15:22:08.202Z,17.90
2019-02-24T15:23:40.175Z,22.48
2019-02-24T15:25:12.061Z,33.53
2019-02-24T15:26:43.946Z,30.50
2019-02-24T15:28:15.497Z,31.20
2019-02-24T15:29:47.413Z,26.52
2019-02-24T15:31:19.290Z,25.10
2019-02-24T15:32:52.117Z,43.70
2019-02-24T15:34:24.205Z,52.20
2019-02-24T15:35:56.145Z,46.40
2019-02-24T15:37:28.090Z,49.13
2019-02-24T15:39:02.124Z,24.13
2019-02-24T15:40:34.844Z,28.60
2019-02-24T15:42:06.766Z,17.98
2019-02-24T15:43:38.673Z,17.70
2019-02-24T15:45:10.550Z,71.57
2019-02-24T15:46:43.759Z,32.98
2019-02-24T15:48:15.707Z,38.85
2019-02-24T15:49:47.669Z,38.65
2019-02-24T15:51:19.807Z,31.45
2019-02-24T15:52:51.864Z,59.85
2019-02-24T15:54:23.747Z,46.50
2019-02-24T15:55:55.690Z,37.35
2019-02-24T15:57:27.021Z,36.07
2019-02-24T15:58:58.715Z,62.50
2019-02-24T16:00:30.041Z,58.00
2019-02-24T16:02:02.325Z,57.30
2019-02-24T16:03:33.638Z,54.87
2019-02-24T16:05:05.074Z,55.27
2019-02-24T16:06:37.475Z,55.15
2019-02-24T16:08:09.551Z,46.60
2019-02-24T16:09:41.483Z,35.05
2019-02-24T16:11:12.944Z,51.83
2019-02-24T16:12:44.886Z,36.00
2019-02-24T16:14:16.778Z,27.20
2019-02-24T16:15:48.722Z,35.75
2019-02-24T16:17:20.913Z,35.63
2019-02-24T16:18:52.848Z,33.73
2019-02-24T16:21:27.844Z,58.50
2019-02-24T16:23:02.408Z,47.93
2019-02-24T16:24:36.710Z,49.05
2019-02-24T16:26:10.342Z,42.33
2019-02-24T16:27:44.133Z,68.57
2019-02-24T16:29:18.658Z,32.78
2019-02-24T16:30:52.896Z,15.15
2019-02-24T16:32:26.524Z,19.90
2019-02-24T16:34:00.912Z,17.98
2019-02-24T16:35:35.355Z,14.18
2019-02-24T16:37:09.605Z,21.17
2019-02-24T16:38:43.914Z,29.90
2019-02-24T16:40:23.087Z,26.87
2019-02-24T16:41:57.712Z,32.58
2019-02-24T16:43:32.010Z,29.27
2019-02-24T16:45:09.044Z,34.17
2019-02-24T16:46:43.333Z,33.67
2019-02-24T16:48:17.222Z,31.67
2019-02-24T16:49:51.520Z,44.30
2019-02-24T16:51:25.246Z,51.87
2019-02-24T16:52:59.017Z,82.30
2019-02-24T16:54:34.764Z,71.05
2019-02-24T16:56:08.484Z,92.90
2019-02-24T16:57:44.275Z,109.80
2019-02-24T16:59:18.581Z,103.10
2019-02-24T17:00:52.758Z,113.03
2019-02-24T17:02:29.558Z,94.07
2019-02-24T17:04:06.152Z,101.05
2019-02-24T17:05:41.856Z,85.83
2019-02-24T17:07:15.913Z,80.83
2019-02-24T17:09:01.247Z,83.37
2019-02-24T17:10:32.664Z,53.43
2019-02-24T17:12:06.964Z,58.02
2019-02-24T17:13:41.452Z,63.38
2019-02-24T17:15:15.188Z,69.43
2019-02-24T17:16:49.450Z,40.30
2019-02-24T17:18:23.146Z,71.37
2019-02-24T17:19:57.049Z,75.50
2019-02-24T17:21:31.365Z,76.05
2019-02-24T17:23:07.256Z,87.08
2019-02-24T17:24:41.972Z,64.67
2019-02-24T17:26:15.930Z,72.73
2019-02-24T17:27:51.498Z,84.07
2019-02-24T17:29:25.228Z,97.47
2019-02-24T17:30:58.974Z,87.37
2019-02-24T17:32:32.977Z,97.50
2019-02-24T17:34:07.232Z,105.00
2019-02-24T17:35:40.877Z,89.83
2019-02-24T17:37:20.081Z,89.33
2019-02-24T17:38:52.296Z,87.42
2019-02-24T17:40:27.026Z,74.50
2019-02-24T17:42:00.687Z,79.70
2019-02-24T17:43:34.485Z,105.10
2019-02-24T17:45:10.920Z,99.90
2019-02-24T17:46:45.211Z,98.87
2019-02-24T17:48:20.111Z,89.53
2019-02-24T17:49:54.417Z,87.30
2019-02-24T17:51:28.382Z,77.00
2019-02-24T17:53:02.730Z,52.67
2019-02-24T17:54:36.991Z,44.33
2019-02-24T17:56:11.228Z,53.63
2019-02-24T17:57:45.216Z,48.10
2019-02-24T17:59:19.049Z,42.70
2019-02-24T18:00:57.114Z,74.00
2019-02-24T18:02:30.811Z,88.17
2019-02-24T18:04:05.258Z,50.60
2019-02-24T18:05:39.581Z,61.50
2019-02-24T18:07:13.809Z,48.40
2019-02-24T18:08:47.640Z,40.93
2019-02-24T18:10:21.764Z,35.87
2019-02-24T18:11:55.606Z,40.13
2019-02-24T18:13:29.677Z,29.17
2019-02-24T18:15:03.475Z,33.60
2019-02-24T18:16:38.274Z,41.50
2019-02-24T18:18:12.028Z,52.03
2019-02-24T18:19:45.754Z,54.90
2019-02-24T18:21:20.067Z,55.70
2019-02-24T18:22:53.986Z,50.47
2019-02-24T18:24:27.685Z,46.87
2019-02-24T18:26:01.925Z,44.25
2019-02-24T18:27:36.247Z,37.28
2019-02-24T18:29:10.923Z,56.10
2019-02-24T18:30:44.709Z,55.93
2019-02-24T18:32:18.433Z,57.33
2019-02-24T18:33:52.134Z,53.90
2019-02-24T18:35:25.946Z,65.80
2019-02-24T18:36:59.588Z,88.53
2019-02-24T18:38:33.880Z,35.68
2019-02-24T18:40:16.204Z,44.95
2019-02-24T18:41:50.146Z,45.23
2019-02-24T18:43:23.887Z,34.83
2019-02-24T18:44:58.299Z,41.58
2019-02-24T18:46:32.094Z,37.00
2019-02-24T18:48:06.363Z,40.37
2019-02-24T18:49:40.138Z,22.40
2019-02-24T18:51:14.446Z,17.70
2019-02-24T18:52:48.743Z,28.67
2019-02-24T18:54:23.467Z,27.42
2019-02-24T18:55:57.757Z,27.20
2019-02-24T18:57:32.047Z,24.55
2019-02-24T18:59:05.847Z,32.97
2019-02-24T19:00:40.422Z,44.08
2019-02-24T19:02:14.304Z,36.03
2019-02-24T19:03:57.017Z,40.77
2019-02-24T19:05:23.324Z,37.90
2019-02-24T19:06:57.461Z,37.73
2019-02-24T19:08:32.669Z,47.17
2019-02-24T19:10:17.503Z,37.93
2019-02-24T19:11:54.642Z,37.57
2019-02-24T19:13:28.990Z,29.25
2019-02-24T19:15:02.727Z,30.67
2019-02-24T19:16:36.458Z,25.20
2019-02-24T19:18:10.844Z,28.15
2019-02-24T19:19:44.746Z,29.87
2019-02-24T19:21:19.053Z,32.75
2019-02-24T19:22:52.720Z,31.70
2019-02-24T19:24:26.388Z,35.47
2019-02-24T19:26:00.543Z,55.95
2019-02-24T19:27:34.279Z,42.53
2019-02-24T19:29:09.044Z,47.97
2019-02-24T19:30:43.447Z,53.83
2019-02-24T19:32:17.605Z,72.27
2019-02-24T19:33:51.356Z,61.80
2019-02-24T19:35:25.029Z,81.50
2019-02-24T19:36:59.566Z,106.37
2019-02-24T19:38:33.507Z,118.00
2019-02-24T19:40:12.864Z,81.77
2019-02-24T19:41:47.125Z,69.87
2019-02-24T19:43:20.775Z,73.90
2019-02-24T19:44:56.039Z,57.55
2019-02-24T19:46:30.040Z,56.97
2019-02-24T19:48:03.707Z,50.97
2019-02-24T19:49:38.047Z,77.20
2019-02-24T19:51:11.920Z,91.60
2019-02-24T19:52:45.629Z,39.57